Archival Weather

Murmansk

Murmansk, Russia (ULMM)

Report from: Tuesday, May 21, 2024 1:00 PM MSK
Current time: Monday, June 17, 2024 9:30 AM MSK

Current weather – Weather history – Daily summaries
Weather forecast

Present weatherLight snow showers, SHSNRA
Temperature-0.0°C (32.0°F)
Wind chill-6.3°C (20.6°F)
Dew point-3.0°C (26.6°F)
Winds 15.6 kts (8 m/s, 17.9 mph) Northwest (320°)
Visibility3.7 mi. (6 km)
Clouds Ceiling: Broken clouds with cumulonimbus 1,100 ft. (335 m)
Broken clouds with cumulonimbus 1,200 ft. (366 m)
Altimeter30.21 in.Hg (1023 mB)
Precip. events QF 9:40 PM
Relative humidity80 %
Density altitude-2,089 ft. (-637 m)
Flight conditions Marginal Visual Meteorological Conditions
Raw dataULMM 211000Z 32008MPS 6000 -SHSN BKN012CB M00/M03 Q1023 R31/190060 TEMPO 0800 +SHSNRA BKN011CB RMK QFE760
An error has occurred. This application may no longer respond until reloaded. Reload 🗙